CSAV Lonquen — A8OT2 — position and weather

sailwx.info

Track history (hours):
 
Tides and Currents Weather Stations Pressure Air Temp Water Temp Dewpoint Dewpoint Depression Visibility Wind Speed Wind Dir Waves Ship Positions

CSAV Lonquen

Last reported at 2014-Sep-28 04:29 UTC. Time now 2014-Oct-01 04:11 UTC.
Position N 37°15' E 006°55'.

Length 261 m; draft 11.9 m.

Type: Ship (hazmat cat A). MMSI: 636091501.

Date/timePositionNaut miles runAvg speedWind from/ knotsBaromVisibWave heightAir tempDewpointWater temp
2014-Sep-28 04:29N 37°15' E 006°55'2318.0
2014-Sep-28 03:14N 37°15' E 006°27'1217.3
2014-Sep-28 02:33N 37°16' E 006°12'1817.2
2014-Sep-28 01:30N 37°16' E 005°50'3417.3
2014-Sep-27 23:33N 37°14' E 005°07'4317.4
2014-Sep-27 21:05N 37°08' E 004°14'917.3
2014-Sep-27 20:33N 37°07' E 004°02'1717.2
2014-Sep-27 19:33N 37°05' E 003°41'1717.2
2014-Sep-27 18:33N 37°02' E 003°20'2317.0
2014-Sep-27 17:14N 36°58' E 002°52'1417.7
2014-Sep-27 16:28N 36°56' E 002°35'38917.7
2014-Sep-26 18:33N 35°58' W 005°23'16218.0
2014-Sep-26 09:33N 36°26' W 008°41'1818.1
2014-Sep-26 08:33N 36°30' W 009°03'2617.9
2014-Sep-26 07:07N 36°44' W 009°29'2918.3
2014-Sep-26 05:31N 37°12' W 009°40'1718.0
2014-Sep-26 04:33N 37°29' W 009°46'1818.0
2014-Sep-26 03:33N 37°47' W 009°51'1818.0
2014-Sep-26 02:33N 38°04' W 009°55'1818.0
2014-Sep-26 01:33N 38°22' W 010°01'2018.1
2014-Sep-26 00:28N 38°41' W 010°06'82017.3
2014-Sep-24 01:06N 50°26' W 000°21'3019.4
2014-Sep-23 23:33N 50°34' E 000°25'1817.8
2014-Sep-23 22:33N 50°44' E 000°49'1817.2
2014-Sep-23 21:32N 50°55' E 001°10'1616.6
2014-Sep-23 20:34N 51°05' E 001°30'1818.4
2014-Sep-23 19:33N 51°19' E 001°49'1212.3
2014-Sep-23 18:33N 51°24' E 002°07'1816.3
2014-Sep-23 17:28N 51°23' E 002°36'1916.3
2014-Sep-23 16:18N 51°24' E 003°06'1419.5
2014-Sep-23 15:33N 51°25' E 003°29'1111.3
2014-Sep-23 14:34N 51°22' E 003°46'1111.0
2014-Sep-23 13:33N 51°22' E 004°04'9 8.9
2014-Sep-23 12:33N 51°18' E 004°16'1 0.5
2014-Sep-23 11:25N 51°18' E 004°16'0 0.0
2014-Sep-23 10:34N 51°18' E 004°16'0 0.0
2014-Sep-23 09:28N 51°18' E 004°16'0 0.0
2014-Sep-23 08:31N 51°18' E 004°16'0 0.0
2014-Sep-23 07:25N 51°18' E 004°16'0 0.0
2014-Sep-23 05:34N 51°18' E 004°16'0 0.0
2014-Sep-23 04:22N 51°18' E 004°16'0 0.0
2014-Sep-23 03:31N 51°18' E 004°16'0 0.0
2014-Sep-23 02:25N 51°18' E 004°16'0 0.0
2014-Sep-23 01:25N 51°18' E 004°16'0 0.0
2014-Sep-23 00:31N 51°18' E 004°16'0 0.0
2014-Sep-22 23:30N 51°18' E 004°16'0 0.0
2014-Sep-22 22:13N 51°18' E 004°16'0 0.0
2014-Sep-22 21:30N 51°18' E 004°16'0 0.0
2014-Sep-22 19:28N 51°18' E 004°16'0 0.0
2014-Sep-22 18:27N 51°18' E 004°16'0 0.0
2014-Sep-22 17:33N 51°18' E 004°16'0 0.0
2014-Sep-22 16:22N 51°18' E 004°16'0 0.0
2014-Sep-22 15:33N 51°18' E 004°16'0 0.0
2014-Sep-22 12:30N 51°18' E 004°16'0 0.0
2014-Sep-22 11:33N 51°18' E 004°16'6 5.7
2014-Sep-22 10:33N 51°23' E 004°13'9 9.3
2014-Sep-22 09:33N 51°26' E 003°58'1010.2
2014-Sep-22 08:33N 51°25' E 003°42'1212.2
2014-Sep-22 07:33N 51°24' E 003°22'1514.6
2014-Sep-22 06:33N 51°27' E 002°59'1818.2
2014-Sep-22 05:33N 51°43' E 003°13'9 9.4
2014-Sep-22 04:33N 51°52' E 003°17'9 7.8
2014-Sep-22 03:23N 52°01' E 003°20'19 6.3
2014-Sep-22 00:20N 52°20' E 003°26'5 6.4
2014-Sep-21 23:31N 52°25' E 003°27'7 7.4
2014-Sep-21 22:32N 52°32' E 003°29'7 7.1
2014-Sep-21 21:33N 52°39' E 003°34'7 7.1
2014-Sep-21 20:33N 52°44' E 003°41'8 7.6
2014-Sep-21 19:33N 52°50' E 003°49'1010.3
2014-Sep-21 18:33N 52°58' E 003°60'1010.1
2014-Sep-21 17:33N 53°04' E 004°12'9 9.1
2014-Sep-21 16:33N 53°11' E 004°24'9 9.0
2014-Sep-21 15:33N 53°19' E 004°30'9 9.4
2014-Sep-21 14:33N 53°27' E 004°37'8 8.3
2014-Sep-21 13:33N 53°31' E 004°49'7 6.9
2014-Sep-21 12:33N 53°33' E 004°60'7 7.4
2014-Sep-21 11:33N 53°36' E 005°11'7 7.4
2014-Sep-21 10:33N 53°39' E 005°23'7 7.2
2014-Sep-21 09:32N 53°41' E 005°35'6 6.6
2014-Sep-21 08:33N 53°43' E 005°45'8 7.7
2014-Sep-21 07:33N 53°45' E 005°58'10 8.8
2014-Sep-21 06:28N 53°48' E 006°13'48 9.4
2014-Sep-21 01:25N 53°59' E 007°32'10 8.9
2014-Sep-21 00:16N 53°53' E 007°46'1014.3
2014-Sep-20 23:33N 53°51' E 008°03'1919.4
2014-Sep-20 22:33N 53°38' E 008°27'3 2.6
2014-Sep-20 21:33N 53°36' E 008°31'0 0.0
2014-Sep-20 20:33N 53°36' E 008°31'0 0.0
2014-Sep-20 19:33N 53°36' E 008°31'0 0.0
2014-Sep-20 18:33N 53°36' E 008°31'0 0.0
2014-Sep-20 17:33N 53°36' E 008°31'0 0.0
2014-Sep-20 16:33N 53°36' E 008°31'0 0.0
2014-Sep-20 15:33N 53°36' E 008°31'0 0.0
2014-Sep-20 14:33N 53°36' E 008°31'0 0.0
2014-Sep-20 13:33N 53°36' E 008°31'0 0.0
2014-Sep-20 12:33N 53°36' E 008°31'0 0.0
2014-Sep-20 11:33N 53°36' E 008°31'0 0.0
2014-Sep-20 10:33N 53°36' E 008°31'0 0.0
2014-Sep-20 09:33N 53°36' E 008°31'0 0.0
2014-Sep-20 08:33N 53°36' E 008°31'0 0.0
2014-Sep-20 07:33N 53°36' E 008°31'0 0.0
2014-Sep-20 06:33N 53°36' E 008°31'0 0.0
2014-Sep-20 05:33N 53°36' E 008°31'0 0.0
2014-Sep-20 04:33N 53°36' E 008°31'0 0.0
2014-Sep-20 03:33N 53°36' E 008°31'0 0.0
2014-Sep-20 02:33N 53°36' E 008°31'0 0.0
2014-Sep-20 01:33N 53°36' E 008°31'0 0.0
2014-Sep-20 00:33N 53°36' E 008°31'0 0.0
2014-Sep-19 23:33N 53°36' E 008°31'0 0.0
2014-Sep-19 22:33N 53°36' E 008°31'1 0.6
2014-Sep-19 21:33N 53°36' E 008°30'1110.7
2014-Sep-19 20:34N 53°43' E 008°16'1010.1
2014-Sep-19 19:33N 53°50' E 008°04'8 8.0
2014-Sep-19 18:33N 53°52' E 007°50'3 2.7
2014-Sep-19 17:28N 53°55' E 007°48'0 0.0
2014-Sep-19 16:22N 53°55' E 007°48'0 0.1
2014-Sep-19 13:28N 53°55' E 007°47'0 0.0
2014-Sep-19 12:31N 53°55' E 007°47'0 0.0
2014-Sep-19 11:31N 53°55' E 007°47'0 0.0
2014-Sep-19 10:28N 53°55' E 007°47'0 0.0
2014-Sep-19 09:28N 53°55' E 007°47'0 0.0
2014-Sep-19 08:10N 53°55' E 007°47'0 0.0
2014-Sep-19 07:28N 53°55' E 007°47'0 0.0
2014-Sep-19 03:04N 53°55' E 007°48'0 0.1
2014-Sep-19 02:31N 53°55' E 007°47'0 0.0
2014-Sep-19 01:31N 53°55' E 007°47'0 0.0
2014-Sep-19 00:31N 53°55' E 007°47'0 0.2
2014-Sep-18 23:33N 53°55' E 007°47'6 6.3
2014-Sep-18 22:33N 53°55' E 007°37'36 9.0
2014-Sep-18 18:31N 53°47' E 006°36'10 9.9
2014-Sep-18 17:33N 53°45' E 006°21'1010.3
2014-Sep-18 16:33N 53°42' E 006°04'1110.6
2014-Sep-18 15:33N 53°38' E 005°47'1110.8
2014-Sep-18 14:33N 53°34' E 005°30'1111.0
2014-Sep-18 13:33N 53°31' E 005°13'1110.8
2014-Sep-18 12:33N 53°27' E 004°56'1010.3
2014-Sep-18 11:33N 53°22' E 004°41'1110.9
2014-Sep-18 10:32N 53°12' E 004°32'1210.7
2014-Sep-18 09:26N 53°02' E 004°23'910.3
2014-Sep-18 08:33N 52°54' E 004°16'11 9.9
2014-Sep-18 07:29N 52°44' E 004°08'9 9.6
2014-Sep-18 06:33N 52°37' E 003°59'9 9.0
2014-Sep-18 05:33N 52°29' E 003°54'9 9.2
2014-Sep-18 04:33N 52°20' E 003°52'  
Track history (hours):
 
Tides and Currents Weather Stations Pressure Air Temp Water Temp Dewpoint Dewpoint Depression Visibility Wind Speed Wind Dir Waves Ship Positions

CSAV Lonquen

Last reported at 2014-Sep-28 04:29 UTC. Time now 2014-Oct-01 04:11 UTC.
Position N 37°15' E 006°55'.

Length 261 m; draft 11.9 m.

Type: Ship (hazmat cat A). MMSI: 636091501.

Date/timePositionNaut miles runAvg speedWind from/ knotsBaromVisibWave heightAir tempDewpointWater temp
2014-Sep-28 04:29N 37°15' E 006°55'2318.0
2014-Sep-28 03:14N 37°15' E 006°27'1217.3
2014-Sep-28 02:33N 37°16' E 006°12'1817.2
2014-Sep-28 01:30N 37°16' E 005°50'3417.3
2014-Sep-27 23:33N 37°14' E 005°07'4317.4
2014-Sep-27 21:05N 37°08' E 004°14'917.3
2014-Sep-27 20:33N 37°07' E 004°02'1717.2
2014-Sep-27 19:33N 37°05' E 003°41'1717.2
2014-Sep-27 18:33N 37°02' E 003°20'2317.0
2014-Sep-27 17:14N 36°58' E 002°52'1417.7
2014-Sep-27 16:28N 36°56' E 002°35'38917.7
2014-Sep-26 18:33N 35°58' W 005°23'16218.0
2014-Sep-26 09:33N 36°26' W 008°41'1818.1
2014-Sep-26 08:33N 36°30' W 009°03'2617.9
2014-Sep-26 07:07N 36°44' W 009°29'2918.3
2014-Sep-26 05:31N 37°12' W 009°40'1718.0
2014-Sep-26 04:33N 37°29' W 009°46'1818.0
2014-Sep-26 03:33N 37°47' W 009°51'1818.0
2014-Sep-26 02:33N 38°04' W 009°55'1818.0
2014-Sep-26 01:33N 38°22' W 010°01'2018.1
2014-Sep-26 00:28N 38°41' W 010°06'82017.3
2014-Sep-24 01:06N 50°26' W 000°21'3019.4
2014-Sep-23 23:33N 50°34' E 000°25'1817.8
2014-Sep-23 22:33N 50°44' E 000°49'1817.2
2014-Sep-23 21:32N 50°55' E 001°10'1616.6
2014-Sep-23 20:34N 51°05' E 001°30'1818.4
2014-Sep-23 19:33N 51°19' E 001°49'1212.3
2014-Sep-23 18:33N 51°24' E 002°07'1816.3
2014-Sep-23 17:28N 51°23' E 002°36'1916.3
2014-Sep-23 16:18N 51°24' E 003°06'1419.5
2014-Sep-23 15:33N 51°25' E 003°29'1111.3
2014-Sep-23 14:34N 51°22' E 003°46'1111.0
2014-Sep-23 13:33N 51°22' E 004°04'9 8.9
2014-Sep-23 12:33N 51°18' E 004°16'1 0.5
2014-Sep-23 11:25N 51°18' E 004°16'0 0.0
2014-Sep-23 10:34N 51°18' E 004°16'0 0.0
2014-Sep-23 09:28N 51°18' E 004°16'0 0.0
2014-Sep-23 08:31N 51°18' E 004°16'0 0.0
2014-Sep-23 07:25N 51°18' E 004°16'0 0.0
2014-Sep-23 05:34N 51°18' E 004°16'0 0.0
2014-Sep-23 04:22N 51°18' E 004°16'0 0.0
2014-Sep-23 03:31N 51°18' E 004°16'0 0.0
2014-Sep-23 02:25N 51°18' E 004°16'0 0.0
2014-Sep-23 01:25N 51°18' E 004°16'0 0.0
2014-Sep-23 00:31N 51°18' E 004°16'0 0.0
2014-Sep-22 23:30N 51°18' E 004°16'0 0.0
2014-Sep-22 22:13N 51°18' E 004°16'0 0.0
2014-Sep-22 21:30N 51°18' E 004°16'0 0.0
2014-Sep-22 19:28N 51°18' E 004°16'0 0.0
2014-Sep-22 18:27N 51°18' E 004°16'0 0.0
2014-Sep-22 17:33N 51°18' E 004°16'0 0.0
2014-Sep-22 16:22N 51°18' E 004°16'0 0.0
2014-Sep-22 15:33N 51°18' E 004°16'0 0.0
2014-Sep-22 12:30N 51°18' E 004°16'0 0.0
2014-Sep-22 11:33N 51°18' E 004°16'6 5.7
2014-Sep-22 10:33N 51°23' E 004°13'9 9.3
2014-Sep-22 09:33N 51°26' E 003°58'1010.2
2014-Sep-22 08:33N 51°25' E 003°42'1212.2
2014-Sep-22 07:33N 51°24' E 003°22'1514.6
2014-Sep-22 06:33N 51°27' E 002°59'1818.2
2014-Sep-22 05:33N 51°43' E 003°13'9 9.4
2014-Sep-22 04:33N 51°52' E 003°17'9 7.8
2014-Sep-22 03:23N 52°01' E 003°20'19 6.3
2014-Sep-22 00:20N 52°20' E 003°26'5 6.4
2014-Sep-21 23:31N 52°25' E 003°27'7 7.4
2014-Sep-21 22:32N 52°32' E 003°29'7 7.1
2014-Sep-21 21:33N 52°39' E 003°34'7 7.1
2014-Sep-21 20:33N 52°44' E 003°41'8 7.6
2014-Sep-21 19:33N 52°50' E 003°49'1010.3
2014-Sep-21 18:33N 52°58' E 003°60'1010.1
2014-Sep-21 17:33N 53°04' E 004°12'9 9.1
2014-Sep-21 16:33N 53°11' E 004°24'9 9.0
2014-Sep-21 15:33N 53°19' E 004°30'9 9.4
2014-Sep-21 14:33N 53°27' E 004°37'8 8.3
2014-Sep-21 13:33N 53°31' E 004°49'7 6.9
2014-Sep-21 12:33N 53°33' E 004°60'7 7.4
2014-Sep-21 11:33N 53°36' E 005°11'7 7.4
2014-Sep-21 10:33N 53°39' E 005°23'7 7.2
2014-Sep-21 09:32N 53°41' E 005°35'6 6.6
2014-Sep-21 08:33N 53°43' E 005°45'8 7.7
2014-Sep-21 07:33N 53°45' E 005°58'10 8.8
2014-Sep-21 06:28N 53°48' E 006°13'48 9.4
2014-Sep-21 01:25N 53°59' E 007°32'10 8.9
2014-Sep-21 00:16N 53°53' E 007°46'1014.3
2014-Sep-20 23:33N 53°51' E 008°03'1919.4
2014-Sep-20 22:33N 53°38' E 008°27'3 2.6
2014-Sep-20 21:33N 53°36' E 008°31'0 0.0
2014-Sep-20 20:33N 53°36' E 008°31'0 0.0
2014-Sep-20 19:33N 53°36' E 008°31'0 0.0
2014-Sep-20 18:33N 53°36' E 008°31'0 0.0
2014-Sep-20 17:33N 53°36' E 008°31'0 0.0
2014-Sep-20 16:33N 53°36' E 008°31'0 0.0
2014-Sep-20 15:33N 53°36' E 008°31'0 0.0
2014-Sep-20 14:33N 53°36' E 008°31'0 0.0
2014-Sep-20 13:33N 53°36' E 008°31'0 0.0
2014-Sep-20 12:33N 53°36' E 008°31'0 0.0
2014-Sep-20 11:33N 53°36' E 008°31'0 0.0
2014-Sep-20 10:33N 53°36' E 008°31'0 0.0
2014-Sep-20 09:33N 53°36' E 008°31'0 0.0
2014-Sep-20 08:33N 53°36' E 008°31'0 0.0
2014-Sep-20 07:33N 53°36' E 008°31'0 0.0
2014-Sep-20 06:33N 53°36' E 008°31'0 0.0
2014-Sep-20 05:33N 53°36' E 008°31'0 0.0
2014-Sep-20 04:33N 53°36' E 008°31'0 0.0
2014-Sep-20 03:33N 53°36' E 008°31'0 0.0
2014-Sep-20 02:33N 53°36' E 008°31'0 0.0
2014-Sep-20 01:33N 53°36' E 008°31'0 0.0
2014-Sep-20 00:33N 53°36' E 008°31'0 0.0
2014-Sep-19 23:33N 53°36' E 008°31'0 0.0
2014-Sep-19 22:33N 53°36' E 008°31'1 0.6
2014-Sep-19 21:33N 53°36' E 008°30'1110.7
2014-Sep-19 20:34N 53°43' E 008°16'1010.1
2014-Sep-19 19:33N 53°50' E 008°04'8 8.0
2014-Sep-19 18:33N 53°52' E 007°50'3 2.7
2014-Sep-19 17:28N 53°55' E 007°48'0 0.0
2014-Sep-19 16:22N 53°55' E 007°48'0 0.1
2014-Sep-19 13:28N 53°55' E 007°47'0 0.0
2014-Sep-19 12:31N 53°55' E 007°47'0 0.0
2014-Sep-19 11:31N 53°55' E 007°47'0 0.0
2014-Sep-19 10:28N 53°55' E 007°47'0 0.0
2014-Sep-19 09:28N 53°55' E 007°47'0 0.0
2014-Sep-19 08:10N 53°55' E 007°47'0 0.0
2014-Sep-19 07:28N 53°55' E 007°47'0 0.0
2014-Sep-19 03:04N 53°55' E 007°48'0 0.1
2014-Sep-19 02:31N 53°55' E 007°47'0 0.0
2014-Sep-19 01:31N 53°55' E 007°47'0 0.0
2014-Sep-19 00:31N 53°55' E 007°47'0 0.2
2014-Sep-18 23:33N 53°55' E 007°47'6 6.3
2014-Sep-18 22:33N 53°55' E 007°37'36 9.0
2014-Sep-18 18:31N 53°47' E 006°36'10 9.9
2014-Sep-18 17:33N 53°45' E 006°21'1010.3
2014-Sep-18 16:33N 53°42' E 006°04'1110.6
2014-Sep-18 15:33N 53°38' E 005°47'1110.8
2014-Sep-18 14:33N 53°34' E 005°30'1111.0
2014-Sep-18 13:33N 53°31' E 005°13'1110.8
2014-Sep-18 12:33N 53°27' E 004°56'1010.3
2014-Sep-18 11:33N 53°22' E 004°41'1110.9
2014-Sep-18 10:32N 53°12' E 004°32'1210.7
2014-Sep-18 09:26N 53°02' E 004°23'910.3
2014-Sep-18 08:33N 52°54' E 004°16'11 9.9
2014-Sep-18 07:29N 52°44' E 004°08'9 9.6
2014-Sep-18 06:33N 52°37' E 003°59'9 9.0
2014-Sep-18 05:33N 52°29' E 003°54'9 9.2
2014-Sep-18 04:33N 52°20' E 003°52'  

Dump ship's entire track history